ECTDM LEAS-LEXJ
Flight info
| Callsign | ECTDM |
|---|---|
| Flight time | 0h 42m |
| Altitude | 12000 |
| Route | AMAKA M190 OBETO |
| Aircraft | B58T/L-SDFGRY/C |
Departure
| Time | 2026-04-18 11:37 |
|---|---|
| Airport | Asturias Airport (LEAS) |
Arrival
| Time | 2026-04-18 12:20 |
|---|---|
| Airport | Seve Ballesteros-Santander Airport (LEXJ) |
| Time | Latitude | Longitude | Altitude | Speed | Heading |
|---|---|---|---|---|---|
| 2026-04-18 11:22 | 43.55906 | -6.02895 | 420 ft | 0 kts | 254° |
| 2026-04-18 11:27 | 43.55906 | -6.02894 | 420 ft | 0 kts | 254° |
| 2026-04-18 11:32 | 43.55906 | -6.02899 | 420 ft | 2 kts | 289° |
| 2026-04-18 11:32 | 43.55947 | -6.02883 | 418 ft | 11 kts | 24° |
| 2026-04-18 11:32 | 43.55982 | -6.02890 | 420 ft | 7 kts | 291° |
| 2026-04-18 11:33 | 43.56047 | -6.02901 | 414 ft | 12 kts | 340° |
| 2026-04-18 11:33 | 43.56086 | -6.03017 | 418 ft | 17 kts | 288° |
| 2026-04-18 11:33 | 43.56129 | -6.03199 | 418 ft | 23 kts | 288° |
| 2026-04-18 11:33 | 43.56182 | -6.03428 | 418 ft | 27 kts | 286° |
| 2026-04-18 11:34 | 43.56239 | -6.03665 | 414 ft | 28 kts | 288° |
| 2026-04-18 11:34 | 43.56300 | -6.03920 | 411 ft | 27 kts | 288° |
| 2026-04-18 11:34 | 43.56357 | -6.04170 | 416 ft | 26 kts | 289° |
| 2026-04-18 11:34 | 43.56408 | -6.04375 | 417 ft | 19 kts | 285° |
| 2026-04-18 11:35 | 43.56450 | -6.04553 | 420 ft | 17 kts | 286° |
| 2026-04-18 11:35 | 43.56493 | -6.04686 | 419 ft | 15 kts | 318° |
| 2026-04-18 11:35 | 43.56527 | -6.04714 | 420 ft | 0 kts | 333° |
| 2026-04-18 11:36 | 43.56528 | -6.04715 | 415 ft | 2 kts | 334° |
| 2026-04-18 11:36 | 43.56580 | -6.04749 | 420 ft | 12 kts | 336° |
| 2026-04-18 11:36 | 43.56655 | -6.04725 | 415 ft | 8 kts | 86° |
| 2026-04-18 11:37 | 43.56617 | -6.04547 | 418 ft | 53 kts | 108° |
| 2026-04-18 11:37 | 43.56430 | -6.03758 | 423 ft | 111 kts | 108° |
| 2026-04-18 11:37 | 43.56150 | -6.02714 | 689 ft | 120 kts | 111° |
| 2026-04-18 11:37 | 43.55859 | -6.01631 | 1101 ft | 120 kts | 107° |
| 2026-04-18 11:38 | 43.55598 | -6.00494 | 1426 ft | 130 kts | 105° |
| 2026-04-18 11:38 | 43.55337 | -5.99278 | 1800 ft | 132 kts | 103° |
| 2026-04-18 11:38 | 43.55071 | -5.98075 | 2197 ft | 132 kts | 105° |
| 2026-04-18 11:38 | 43.54796 | -5.96892 | 2574 ft | 129 kts | 106° |
| 2026-04-18 11:39 | 43.54513 | -5.95694 | 2964 ft | 132 kts | 107° |
| 2026-04-18 11:39 | 43.54223 | -5.94466 | 3356 ft | 136 kts | 106° |
| 2026-04-18 11:39 | 43.53931 | -5.93216 | 3726 ft | 137 kts | 107° |
| 2026-04-18 11:39 | 43.53632 | -5.91970 | 4094 ft | 138 kts | 109° |
| 2026-04-18 11:40 | 43.53469 | -5.90670 | 4472 ft | 140 kts | 88° |
| 2026-04-18 11:40 | 43.53530 | -5.89324 | 4821 ft | 143 kts | 90° |
| 2026-04-18 11:40 | 43.53565 | -5.87921 | 5153 ft | 148 kts | 91° |
| 2026-04-18 11:40 | 43.53608 | -5.86483 | 5469 ft | 152 kts | 91° |
| 2026-04-18 11:41 | 43.53640 | -5.85386 | 5706 ft | 155 kts | 90° |
| 2026-04-18 11:41 | 43.53687 | -5.83827 | 6053 ft | 158 kts | 90° |
| 2026-04-18 11:41 | 43.53732 | -5.82298 | 6382 ft | 161 kts | 91° |
| 2026-04-18 11:41 | 43.53777 | -5.80762 | 6704 ft | 163 kts | 91° |
| 2026-04-18 11:42 | 43.53822 | -5.79197 | 7019 ft | 164 kts | 91° |
| 2026-04-18 11:42 | 43.53869 | -5.77612 | 7338 ft | 166 kts | 91° |
| 2026-04-18 11:42 | 43.53915 | -5.76007 | 7656 ft | 168 kts | 91° |
| 2026-04-18 11:42 | 43.53962 | -5.74393 | 7982 ft | 169 kts | 91° |
| 2026-04-18 11:43 | 43.54008 | -5.72765 | 8301 ft | 170 kts | 91° |
| 2026-04-18 11:43 | 43.54055 | -5.71130 | 8629 ft | 171 kts | 91° |
| 2026-04-18 11:43 | 43.54100 | -5.69486 | 8961 ft | 172 kts | 91° |
| 2026-04-18 11:43 | 43.54146 | -5.67852 | 9290 ft | 173 kts | 91° |
| 2026-04-18 11:44 | 43.54194 | -5.66185 | 9625 ft | 174 kts | 92° |
| 2026-04-18 11:44 | 43.54229 | -5.64511 | 9963 ft | 174 kts | 96° |
| 2026-04-18 11:44 | 43.54138 | -5.62873 | 10284 ft | 174 kts | 100° |
| 2026-04-18 11:44 | 43.54039 | -5.61200 | 10598 ft | 176 kts | 98° |
| 2026-04-18 11:45 | 43.53960 | -5.59509 | 10910 ft | 177 kts | 98° |
| 2026-04-18 11:45 | 43.53885 | -5.57813 | 11230 ft | 177 kts | 98° |
| 2026-04-18 11:45 | 43.53809 | -5.56105 | 11542 ft | 178 kts | 98° |
| 2026-04-18 11:45 | 43.53733 | -5.54416 | 11876 ft | 178 kts | 98° |
| 2026-04-18 11:46 | 43.53656 | -5.52710 | 12225 ft | 178 kts | 98° |
| 2026-04-18 11:46 | 43.53578 | -5.51006 | 12572 ft | 178 kts | 98° |
| 2026-04-18 11:46 | 43.53501 | -5.49296 | 12930 ft | 178 kts | 98° |
| 2026-04-18 11:46 | 43.53424 | -5.47607 | 13284 ft | 179 kts | 98° |
| 2026-04-18 11:47 | 43.53345 | -5.45896 | 13650 ft | 179 kts | 98° |
| 2026-04-18 11:47 | 43.53266 | -5.44180 | 13993 ft | 181 kts | 99° |
| 2026-04-18 11:47 | 43.53177 | -5.42351 | 14015 ft | 200 kts | 98° |
| 2026-04-18 11:47 | 43.53083 | -5.40359 | 14018 ft | 215 kts | 98° |
| 2026-04-18 11:48 | 43.52987 | -5.38250 | 14015 ft | 225 kts | 97° |
| 2026-04-18 11:48 | 43.52889 | -5.36078 | 14143 ft | 227 kts | 97° |
| 2026-04-18 11:48 | 43.52789 | -5.33922 | 14236 ft | 229 kts | 98° |
| 2026-04-18 11:48 | 43.52681 | -5.31693 | 14242 ft | 235 kts | 97° |
| 2026-04-18 11:49 | 43.52575 | -5.29416 | 14246 ft | 240 kts | 97° |
| 2026-04-18 11:49 | 43.52464 | -5.27077 | 14252 ft | 242 kts | 97° |
| 2026-04-18 11:49 | 43.52354 | -5.24756 | 14250 ft | 244 kts | 97° |
| 2026-04-18 11:49 | 43.52241 | -5.22403 | 14249 ft | 246 kts | 97° |
| 2026-04-18 11:50 | 43.52125 | -5.19980 | 14248 ft | 247 kts | 97° |
| 2026-04-18 11:50 | 43.52011 | -5.17613 | 14248 ft | 248 kts | 97° |
| 2026-04-18 11:50 | 43.51896 | -5.15240 | 14252 ft | 248 kts | 97° |
| 2026-04-18 11:50 | 43.51780 | -5.12865 | 14251 ft | 249 kts | 97° |
| 2026-04-18 11:51 | 43.51660 | -5.10484 | 14251 ft | 249 kts | 98° |
| 2026-04-18 11:51 | 43.51538 | -5.08104 | 14253 ft | 249 kts | 97° |
| 2026-04-18 11:51 | 43.51423 | -5.05748 | 14254 ft | 249 kts | 97° |
| 2026-04-18 11:51 | 43.51306 | -5.03363 | 14254 ft | 249 kts | 97° |
| 2026-04-18 11:52 | 43.51188 | -5.00980 | 14257 ft | 249 kts | 97° |
| 2026-04-18 11:52 | 43.51066 | -4.98530 | 14256 ft | 249 kts | 97° |
| 2026-04-18 11:52 | 43.50947 | -4.96145 | 14262 ft | 249 kts | 97° |
| 2026-04-18 11:52 | 43.50829 | -4.93786 | 14032 ft | 243 kts | 97° |
| 2026-04-18 11:53 | 43.50714 | -4.91490 | 13763 ft | 237 kts | 97° |
| 2026-04-18 11:53 | 43.50601 | -4.89263 | 13497 ft | 233 kts | 97° |
| 2026-04-18 11:53 | 43.50488 | -4.87047 | 13233 ft | 230 kts | 97° |
| 2026-04-18 11:53 | 43.50377 | -4.84876 | 12969 ft | 228 kts | 97° |
| 2026-04-18 11:54 | 43.50266 | -4.82707 | 12707 ft | 225 kts | 97° |
| 2026-04-18 11:54 | 43.50154 | -4.80539 | 12380 ft | 227 kts | 97° |
| 2026-04-18 11:54 | 43.50042 | -4.78377 | 12055 ft | 227 kts | 97° |
| 2026-04-18 11:54 | 43.49930 | -4.76201 | 11736 ft | 226 kts | 97° |
| 2026-04-18 11:55 | 43.49818 | -4.74043 | 11419 ft | 226 kts | 97° |
| 2026-04-18 11:55 | 43.49705 | -4.71888 | 11103 ft | 225 kts | 97° |
| 2026-04-18 11:55 | 43.49593 | -4.69742 | 10790 ft | 224 kts | 97° |
| 2026-04-18 11:55 | 43.49482 | -4.67635 | 10483 ft | 222 kts | 97° |
| 2026-04-18 11:56 | 43.49371 | -4.65513 | 10257 ft | 219 kts | 97° |
| 2026-04-18 11:56 | 43.49259 | -4.63419 | 10253 ft | 218 kts | 97° |
| 2026-04-18 11:56 | 43.49148 | -4.61336 | 10256 ft | 218 kts | 97° |
| 2026-04-18 11:56 | 43.49038 | -4.59278 | 10255 ft | 218 kts | 97° |
| 2026-04-18 11:57 | 43.48926 | -4.57179 | 10256 ft | 217 kts | 97° |
| 2026-04-18 11:57 | 43.48815 | -4.55113 | 10255 ft | 217 kts | 97° |
| 2026-04-18 11:57 | 43.48703 | -4.53036 | 10254 ft | 217 kts | 97° |
| 2026-04-18 11:57 | 43.48590 | -4.50954 | 10020 ft | 216 kts | 97° |
| 2026-04-18 11:58 | 43.48482 | -4.48935 | 9682 ft | 211 kts | 97° |
| 2026-04-18 11:58 | 43.48372 | -4.46913 | 9338 ft | 208 kts | 97° |
| 2026-04-18 11:58 | 43.48265 | -4.44938 | 8998 ft | 205 kts | 97° |
| 2026-04-18 11:58 | 43.48157 | -4.42982 | 8666 ft | 204 kts | 97° |
| 2026-04-18 11:59 | 43.48052 | -4.41064 | 8347 ft | 202 kts | 97° |
| 2026-04-18 11:59 | 43.47945 | -4.39134 | 8021 ft | 201 kts | 97° |
| 2026-04-18 11:59 | 43.47840 | -4.37223 | 7702 ft | 200 kts | 96° |
| 2026-04-18 11:59 | 43.47735 | -4.35319 | 7387 ft | 198 kts | 96° |
| 2026-04-18 12:00 | 43.47629 | -4.33429 | 7068 ft | 197 kts | 96° |
| 2026-04-18 12:00 | 43.47524 | -4.31547 | 6761 ft | 196 kts | 97° |
| 2026-04-18 12:00 | 43.47421 | -4.29699 | 6438 ft | 195 kts | 96° |
| 2026-04-18 12:00 | 43.47317 | -4.27847 | 6256 ft | 192 kts | 96° |
| 2026-04-18 12:01 | 43.47109 | -4.24142 | 6257 ft | 195 kts | 96° |
| 2026-04-18 12:01 | 43.47003 | -4.22278 | 6257 ft | 195 kts | 96° |
| 2026-04-18 12:01 | 43.46897 | -4.20408 | 6253 ft | 196 kts | 96° |
| 2026-04-18 12:02 | 43.46791 | -4.18534 | 6249 ft | 197 kts | 96° |
| 2026-04-18 12:02 | 43.46684 | -4.16680 | 6251 ft | 197 kts | 97° |
| 2026-04-18 12:02 | 43.46561 | -4.14796 | 6248 ft | 197 kts | 97° |
| 2026-04-18 12:02 | 43.46475 | -4.13478 | 6243 ft | 197 kts | 97° |
| 2026-04-18 12:03 | 43.46355 | -4.11595 | 6236 ft | 197 kts | 97° |
| 2026-04-18 12:03 | 43.46236 | -4.09736 | 6235 ft | 197 kts | 97° |
| 2026-04-18 12:03 | 43.46117 | -4.07859 | 6237 ft | 197 kts | 97° |
| 2026-04-18 12:03 | 43.45996 | -4.05974 | 6235 ft | 197 kts | 97° |
| 2026-04-18 12:04 | 43.45873 | -4.04066 | 6137 ft | 202 kts | 97° |
| 2026-04-18 12:04 | 43.45747 | -4.02117 | 6014 ft | 205 kts | 97° |
| 2026-04-18 12:04 | 43.45623 | -4.00175 | 6004 ft | 202 kts | 97° |
| 2026-04-18 12:04 | 43.45499 | -3.98256 | 6005 ft | 200 kts | 97° |
| 2026-04-18 12:05 | 43.45376 | -3.96351 | 6000 ft | 198 kts | 97° |
| 2026-04-18 12:05 | 43.45253 | -3.94462 | 5994 ft | 198 kts | 97° |
| 2026-04-18 12:05 | 43.45131 | -3.92594 | 5999 ft | 198 kts | 97° |
| 2026-04-18 12:05 | 43.45007 | -3.90708 | 5992 ft | 198 kts | 97° |
| 2026-04-18 12:06 | 43.44821 | -3.88801 | 5841 ft | 205 kts | 101° |
| 2026-04-18 12:06 | 43.44623 | -3.86851 | 5754 ft | 205 kts | 100° |
| 2026-04-18 12:06 | 43.44434 | -3.84940 | 5654 ft | 197 kts | 100° |
| 2026-04-18 12:06 | 43.44249 | -3.83109 | 5546 ft | 190 kts | 101° |
| 2026-04-18 12:07 | 43.44066 | -3.81333 | 5455 ft | 185 kts | 101° |
| 2026-04-18 12:07 | 43.43890 | -3.79622 | 5373 ft | 181 kts | 101° |
| 2026-04-18 12:07 | 43.43709 | -3.77882 | 5301 ft | 187 kts | 101° |
| 2026-04-18 12:07 | 43.43521 | -3.76084 | 5226 ft | 190 kts | 101° |
| 2026-04-18 12:08 | 43.43334 | -3.74259 | 5161 ft | 193 kts | 100° |
| 2026-04-18 12:08 | 43.43145 | -3.72432 | 5092 ft | 193 kts | 101° |
| 2026-04-18 12:08 | 43.42957 | -3.70619 | 5018 ft | 194 kts | 100° |
| 2026-04-18 12:08 | 43.42765 | -3.68775 | 4948 ft | 194 kts | 101° |
| 2026-04-18 12:09 | 43.42575 | -3.66948 | 4869 ft | 194 kts | 100° |
| 2026-04-18 12:09 | 43.42385 | -3.65123 | 4791 ft | 192 kts | 101° |
| 2026-04-18 12:09 | 43.42194 | -3.63307 | 4720 ft | 192 kts | 100° |
| 2026-04-18 12:09 | 43.42007 | -3.61511 | 4645 ft | 192 kts | 100° |
| 2026-04-18 12:10 | 43.41817 | -3.59703 | 4569 ft | 191 kts | 100° |
| 2026-04-18 12:10 | 43.41630 | -3.57896 | 4491 ft | 190 kts | 101° |
| 2026-04-18 12:10 | 43.41439 | -3.56083 | 4422 ft | 191 kts | 100° |
| 2026-04-18 12:10 | 43.41247 | -3.54271 | 4345 ft | 191 kts | 99° |
| 2026-04-18 12:11 | 43.41057 | -3.52465 | 4270 ft | 190 kts | 99° |
| 2026-04-18 12:11 | 43.40869 | -3.50676 | 4194 ft | 189 kts | 99° |
| 2026-04-18 12:11 | 43.40683 | -3.48912 | 4114 ft | 188 kts | 99° |
| 2026-04-18 12:11 | 43.40494 | -3.47150 | 4108 ft | 184 kts | 99° |
| 2026-04-18 12:12 | 43.40096 | -3.45512 | 4100 ft | 180 kts | 121° |
| 2026-04-18 12:12 | 43.39293 | -3.44205 | 4097 ft | 179 kts | 141° |
| 2026-04-18 12:12 | 43.38209 | -3.43385 | 4101 ft | 178 kts | 162° |
| 2026-04-18 12:12 | 43.36984 | -3.43151 | 4102 ft | 179 kts | 182° |
| 2026-04-18 12:13 | 43.35772 | -3.43541 | 4107 ft | 180 kts | 203° |
| 2026-04-18 12:13 | 43.34748 | -3.44498 | 4108 ft | 181 kts | 224° |
| 2026-04-18 12:13 | 43.34036 | -3.45917 | 4109 ft | 182 kts | 245° |
| 2026-04-18 12:13 | 43.33745 | -3.47611 | 4104 ft | 183 kts | 266° |
| 2026-04-18 12:14 | 43.33926 | -3.49338 | 4106 ft | 184 kts | 288° |
| 2026-04-18 12:14 | 43.34389 | -3.50978 | 4107 ft | 184 kts | 291° |
| 2026-04-18 12:14 | 43.34847 | -3.52598 | 4103 ft | 182 kts | 290° |
| 2026-04-18 12:14 | 43.35284 | -3.54241 | 4036 ft | 184 kts | 289° |
| 2026-04-18 12:15 | 43.35718 | -3.55857 | 3810 ft | 177 kts | 290° |
| 2026-04-18 12:15 | 43.36143 | -3.57441 | 3579 ft | 174 kts | 290° |
| 2026-04-18 12:15 | 43.36553 | -3.58994 | 3347 ft | 173 kts | 291° |
| 2026-04-18 12:15 | 43.36973 | -3.60544 | 3112 ft | 173 kts | 290° |
| 2026-04-18 12:16 | 43.37383 | -3.62072 | 2884 ft | 172 kts | 290° |
| 2026-04-18 12:16 | 43.37795 | -3.63616 | 2651 ft | 172 kts | 290° |
| 2026-04-18 12:16 | 43.38201 | -3.65153 | 2420 ft | 169 kts | 291° |
| 2026-04-18 12:16 | 43.38609 | -3.66676 | 2189 ft | 170 kts | 291° |
| 2026-04-18 12:17 | 43.39017 | -3.68201 | 1957 ft | 169 kts | 291° |
| 2026-04-18 12:17 | 43.39420 | -3.69712 | 1726 ft | 166 kts | 291° |
| 2026-04-18 12:17 | 43.39808 | -3.71159 | 1511 ft | 156 kts | 292° |
| 2026-04-18 12:17 | 43.40176 | -3.72524 | 1296 ft | 151 kts | 292° |
| 2026-04-18 12:18 | 43.40528 | -3.73846 | 1080 ft | 143 kts | 292° |
| 2026-04-18 12:18 | 43.40864 | -3.75107 | 895 ft | 139 kts | 291° |
| 2026-04-18 12:18 | 43.41187 | -3.76327 | 710 ft | 127 kts | 294° |
| 2026-04-18 12:18 | 43.41472 | -3.77388 | 544 ft | 115 kts | 295° |
| 2026-04-18 12:19 | 43.41767 | -3.78474 | 396 ft | 126 kts | 295° |
| 2026-04-18 12:19 | 43.42063 | -3.79606 | 215 ft | 125 kts | 294° |
| 2026-04-18 12:19 | 43.42360 | -3.80703 | 52 ft | 118 kts | 291° |
| 2026-04-18 12:19 | 43.42610 | -3.81661 | 16 ft | 92 kts | 292° |
| 2026-04-18 12:20 | 43.42738 | -3.82122 | 12 ft | 11 kts | 289° |
| 2026-04-18 12:20 | 43.42718 | -3.82231 | 12 ft | 14 kts | 202° |
| 2026-04-18 12:20 | 43.42646 | -3.82269 | 13 ft | 10 kts | 199° |
| 2026-04-18 12:20 | 43.42584 | -3.82299 | 13 ft | 4 kts | 199° |
| 2026-04-18 12:21 | 43.42581 | -3.82300 | 13 ft | 0 kts | 198° |
| 2026-04-18 12:22 | 43.42542 | -3.82320 | 13 ft | 7 kts | 200° |
| 2026-04-18 12:22 | 43.42514 | -3.82335 | 13 ft | 10 kts | 200° |
| 2026-04-18 12:23 | 43.42453 | -3.82372 | 13 ft | 7 kts | 248° |
| 2026-04-18 12:23 | 43.42472 | -3.82450 | 13 ft | 9 kts | 290° |
| 2026-04-18 12:23 | 43.42485 | -3.82515 | 13 ft | 4 kts | 250° |
| 2026-04-18 12:23 | 43.42473 | -3.82527 | 13 ft | 0 kts | 207° |
| 2026-04-18 12:24 | 43.42454 | -3.82522 | 13 ft | 6 kts | 149° |
| 2026-04-18 12:24 | 43.42442 | -3.82527 | 13 ft | 1 kts | 293° |
| 2026-04-18 12:25 | 43.42446 | -3.82540 | 13 ft | 0 kts | 291° |
| 2026-04-18 12:25 | 43.42446 | -3.82542 | 13 ft | 0 kts | 290° |